Time;durP1;ratioP1;P1;durP2;ratioP2;P2;SDS_P1;SDS_P2;PMS_P1;PMS_P2;Temp;Humidity;BMP_temperature;BMP_pressure;BME280_temperature;BME280_humidity;BME280_pressure;Samples;Min_cycle;Max_cycle;Signal;HPM_P1;HPM_P2
2023/09/18 00:02:10;;;;;;;;;;;;;;;18.51;100.00;100525.94;5046110;28;19901;-60
2023/09/18 00:04:35;;;;;;;;;;;;;;;18.52;100.00;100522.41;5047031;28;20177;-59
2023/09/18 00:07:00;;;;;;;;;;;;;;;18.49;100.00;100511.91;5047024;28;19901;-59
2023/09/18 00:09:25;;;;;;;;;;;;;;;18.49;100.00;100511.91;5046705;28;19990;-60
2023/09/18 00:11:52;;;;;;;;;;;;;;;18.49;100.00;100518.03;5046703;28;20066;-58
2023/09/18 00:14:17;;;;;;;;;;;;;;;18.48;100.00;100507.50;5046388;28;19913;-60
2023/09/18 00:16:43;;;;;;;;;;;;;;;18.48;100.00;100507.50;5045839;28;19905;-60
2023/09/18 00:19:08;;;;;;;;;;;;;;;18.47;100.00;100508.44;5027830;28;19969;-60
2023/09/18 00:21:34;;;;;;;;;;;;;;;18.48;100.00;100499.59;5051999;28;19901;-59
2023/09/18 00:24:00;;;;;;;;;;;;;;;18.45;100.00;100489.97;5049768;28;19908;-60
2023/09/18 00:26:25;;;;;;;;;;;;;;;18.42;100.00;100480.34;5046158;28;20144;-60
2023/09/18 00:28:53;;;;;;;;;;;;;;;18.43;100.00;100478.56;5046248;28;20149;-60
2023/09/18 00:31:19;;;;;;;;;;;;;;;18.42;100.00;100471.53;5045034;28;19976;-60
2023/09/18 00:33:47;;;;;;;;;;;;;;;18.41;100.00;100465.41;5044828;28;19912;-59
2023/09/18 00:36:13;;;;;;;;;;;;;;;18.40;100.00;100466.28;5043579;28;20181;-60
2023/09/18 00:38:38;;;;;;;;;;;;;;;18.39;100.00;100451.38;5045395;28;20160;-60
2023/09/18 00:41:03;;;;;;;;;;;;;;;18.39;100.00;100453.13;5040718;28;19936;-60
2023/09/18 00:43:31;;;;;;;;;;;;;;;18.38;100.00;100454.03;5045043;28;19905;-60
2023/09/18 00:45:57;;;;;;;;;;;;;;;18.37;100.00;100447.00;5043923;28;20059;-60
2023/09/18 00:48:22;;;;;;;;;;;;;;;18.36;100.00;100435.56;5044493;28;19920;-58
2023/09/18 00:50:48;;;;;;;;;;;;;;;18.36;100.00;100439.97;5043389;28;20131;-60
2023/09/18 00:53:14;;;;;;;;;;;;;;;18.36;100.00;100434.69;5043335;28;19916;-60
2023/09/18 00:55:39;;;;;;;;;;;;;;;18.34;100.00;100437.38;5034511;28;19968;-60
2023/09/18 00:58:05;;;;;;;;;;;;;;;18.33;100.00;100430.34;5053383;28;19905;-59
2023/09/18 01:00:30;;;;;;;;;;;;;;;18.32;100.00;100427.72;5047594;28;19928;-60
2023/09/18 01:02:56;;;;;;;;;;;;;;;18.32;100.00;100425.09;5049148;28;19964;-60
2023/09/18 01:05:24;;;;;;;;;;;;;;;18.30;100.00;100419.84;5044160;28;19928;-60
2023/09/18 01:07:52;;;;;;;;;;;;;;;18.28;100.00;100410.19;5045573;28;19901;-60
2023/09/18 01:10:17;;;;;;;;;;;;;;;18.27;100.00;100395.28;5045486;28;19982;-60
2023/09/18 01:12:48;;;;;;;;;;;;;;;18.25;100.00;100396.19;5052422;28;19901;-60
2023/09/18 01:15:26;;;;;;;;;;;;;;;18.24;100.00;100393.56;5048084;28;19901;-60
2023/09/18 01:17:52;;;;;;;;;;;;;;;18.21;100.00;100388.34;5044807;28;20135;-59
2023/09/18 01:20:17;;;;;;;;;;;;;;;18.21;100.00;100377.78;5045274;28;19960;-59
2023/09/18 01:22:43;;;;;;;;;;;;;;;18.20;100.00;100373.41;5045259;28;19901;-60
2023/09/18 01:25:08;;;;;;;;;;;;;;;18.20;100.00;100376.91;5024341;28;20005;-60
2023/09/18 01:27:34;;;;;;;;;;;;;;;18.21;100.00;100377.78;5025443;28;19906;-60
2023/09/18 01:29:59;;;;;;;;;;;;;;;18.25;100.00;100376.84;5030550;28;19906;-60
2023/09/18 01:32:27;;;;;;;;;;;;;;;18.30;100.00;100382.06;5023258;28;19933;-60
2023/09/18 01:34:53;;;;;;;;;;;;;;;18.35;100.00;100380.19;5024207;28;19908;-60
2023/09/18 01:37:20;;;;;;;;;;;;;;;18.42;100.00;100376.56;5021800;28;19922;-60
2023/09/18 01:39:46;;;;;;;;;;;;;;;18.46;100.00;100383.53;5019275;28;19894;-60
2023/09/18 01:42:15;;;;;;;;;;;;;;;18.48;100.00;100384.41;5023128;28;20020;-60
2023/09/18 01:44:40;;;;;;;;;;;;;;;18.53;100.00;100390.44;5021963;28;20055;-60
2023/09/18 01:47:07;;;;;;;;;;;;;;;18.57;100.00;100386.88;5022665;28;20143;-60
2023/09/18 01:49:33;;;;;;;;;;;;;;;18.59;100.00;100389.47;5023586;28;19919;-60
2023/09/18 01:51:58;;;;;;;;;;;;;;;18.64;100.00;100381.47;5023033;28;19921;-60
2023/09/18 01:54:24;;;;;;;;;;;;;;;18.67;100.00;100376.16;5024375;28;19906;-60
2023/09/18 01:56:50;;;;;;;;;;;;;;;18.66;100.00;100379.72;5021507;28;19906;-60
2023/09/18 01:59:16;;;;;;;;;;;;;;;18.69;100.00;100379.66;5021420;28;19905;-60
2023/09/18 02:01:41;;;;;;;;;;;;;;;18.70;100.00;100370.84;5019354;28;20137;-60
2023/09/18 02:04:06;;;;;;;;;;;;;;;18.69;100.00;100369.09;5018837;28;19910;-59
2023/09/18 02:06:31;;;;;;;;;;;;;;;18.68;100.00;100372.63;5018355;28;19945;-59
2023/09/18 02:08:56;;;;;;;;;;;;;;;18.66;100.00;100372.66;5019972;28;19905;-60
2023/09/18 02:11:24;;;;;;;;;;;;;;;18.65;100.00;100370.03;5017857;28;19914;-59
2023/09/18 02:13:50;;;;;;;;;;;;;;;18.63;100.00;100367.44;5018427;28;19913;-60
2023/09/18 02:16:15;;;;;;;;;;;;;;;18.64;100.00;100361.25;5017077;28;19972;-60
2023/09/18 02:18:40;;;;;;;;;;;;;;;18.64;100.00;100363.00;5018401;28;20039;-59
2023/09/18 02:21:05;;;;;;;;;;;;;;;18.63;100.00;100361.28;5018582;28;19902;-60
2023/09/18 02:23:30;;;;;;;;;;;;;;;18.63;100.00;100353.38;5017691;28;19928;-60
2023/09/18 02:25:56;;;;;;;;;;;;;;;18.65;100.00;100357.69;5027382;28;19940;-60
2023/09/18 02:28:21;;;;;;;;;;;;;;;18.64;100.00;100345.44;5036973;28;20036;-59
2023/09/18 02:30:47;;;;;;;;;;;;;;;18.65;100.00;100347.16;5037924;28;19909;-60
2023/09/18 02:33:12;;;;;;;;;;;;;;;18.67;100.00;100333.91;5043368;28;20032;-60
2023/09/18 02:35:37;;;;;;;;;;;;;;;18.67;100.00;100318.09;5041383;28;20014;-60
2023/09/18 02:38:02;;;;;;;;;;;;;;;18.65;100.00;100304.94;5042578;28;19940;-60
2023/09/18 02:40:28;;;;;;;;;;;;;;;18.67;100.00;100304.91;5039334;28;19910;-60
2023/09/18 02:42:53;;;;;;;;;;;;;;;18.66;100.00;100303.19;5048572;28;20170;-60
2023/09/18 02:45:20;;;;;;;;;;;;;;;18.66;100.00;100305.81;5027532;28;19931;-60
2023/09/18 02:47:46;;;;;;;;;;;;;;;18.66;100.00;100300.53;5043275;28;19905;-60
2023/09/18 02:50:11;;;;;;;;;;;;;;;18.66;100.00;100279.44;5046030;28;19913;-60
2023/09/18 02:52:36;;;;;;;;;;;;;;;18.68;100.00;100280.25;5031420;28;19967;-60
2023/09/18 02:55:03;;;;;;;;;;;;;;;18.72;100.00;100282.78;5044827;28;19936;-60
2023/09/18 02:57:28;;;;;;;;;;;;;;;18.79;100.00;100280.06;5046488;28;19909;-59
2023/09/18 02:59:54;;;;;;;;;;;;;;;18.83;100.00;100285.25;5046476;28;20088;-60
2023/09/18 03:02:19;;;;;;;;;;;;;;;18.86;100.00;100277.28;5045881;28;19916;-60
2023/09/18 03:04:44;;;;;;;;;;;;;;;18.90;100.00;100271.06;5047516;28;19905;-60
2023/09/18 03:07:12;;;;;;;;;;;;;;;18.92;100.00;100256.03;5046448;28;19905;-60
2023/09/18 03:09:37;;;;;;;;;;;;;;;18.96;100.00;100258.63;5046891;28;19909;-60
2023/09/18 03:12:03;;;;;;;;;;;;;;;18.97;100.00;100252.44;5044291;28;19976;-60
2023/09/18 03:14:28;;;;;;;;;;;;;;;19.00;100.00;100244.47;5046878;28;19909;-60
2023/09/18 03:16:53;;;;;;;;;;;;;;;19.00;100.00;100242.72;5045924;28;19905;-60
2023/09/18 03:19:18;;;;;;;;;;;;;;;18.99;100.00;100242.72;5046032;28;20143;-60
2023/09/18 03:21:43;;;;;;;;;;;;;;;18.98;100.00;100239.22;5046462;28;19912;-60
2023/09/18 03:24:08;;;;;;;;;;;;;;;19.00;100.00;100231.25;5044984;28;20016;-60
2023/09/18 03:26:34;;;;;;;;;;;;;;;18.99;100.00;100263.84;5044805;28;19968;-59
2023/09/18 03:28:59;;;;;;;;;;;;;;;18.98;100.00;100262.13;5043372;28;19912;-60
2023/09/18 03:31:24;;;;;;;;;;;;;;;18.98;100.00;100268.25;5037082;28;20222;-60
2023/09/18 03:33:49;;;;;;;;;;;;;;;19.02;100.00;100250.59;5046848;28;19901;-60
2023/09/18 03:36:15;;;;;;;;;;;;;;;19.03;100.00;100257.59;5042602;28;19905;-60
2023/09/18 03:38:40;;;;;;;;;;;;;;;19.04;100.00;100257.56;5044123;28;19940;-60
2023/09/18 03:41:05;;;;;;;;;;;;;;;19.07;100.00;100267.19;5042576;28;20143;-60
2023/09/18 03:43:30;;;;;;;;;;;;;;;19.11;100.00;100268.88;5044293;28;19924;-60
2023/09/18 03:46:06;;;;;;;;;;;;;;;19.13;100.00;100274.13;5043769;28;19924;-60
2023/09/18 03:48:37;;;;;;;;;;;;;;;19.13;100.00;100269.69;5044677;28;20150;-59
2023/09/18 03:51:03;;;;;;;;;;;;;;;19.16;100.00;100296.06;5044795;28;19932;-60
2023/09/18 03:53:34;;;;;;;;;;;;;;;19.17;100.00;100283.72;5042576;28;19905;-60
2023/09/18 03:55:59;;;;;;;;;;;;;;;19.17;100.00;100271.38;5044891;28;20142;-59
2023/09/18 03:58:25;;;;;;;;;;;;;;;19.18;100.00;100257.28;5043774;28;19917;-60
2023/09/18 04:00:51;;;;;;;;;;;;;;;19.20;100.00;100249.31;5041801;28;19917;-60
2023/09/18 04:03:17;;;;;;;;;;;;;;;19.19;100.00;100244.94;5041914;28;19905;-60
2023/09/18 04:05:42;;;;;;;;;;;;;;;19.20;100.00;100265.16;5040687;28;20035;-60
2023/09/18 04:08:07;;;;;;;;;;;;;;;19.19;100.00;100285.44;5042496;28;19905;-60
2023/09/18 04:10:35;;;;;;;;;;;;;;;19.18;100.00;100281.03;5042293;28;19908;-60
2023/09/18 04:13:01;;;;;;;;;;;;;;;19.18;100.00;100286.34;5046460;28;19901;-60
2023/09/18 04:15:27;;;;;;;;;;;;;;;19.17;100.00;100287.22;5045701;28;20154;-60
2023/09/18 04:17:52;;;;;;;;;;;;;;;19.18;100.00;100278.41;5045576;28;19959;-60
2023/09/18 04:20:18;;;;;;;;;;;;;;;19.18;100.00;100278.41;5027244;28;20097;-61
2023/09/18 04:22:44;;;;;;;;;;;;;;;19.19;100.00;100269.59;5041797;28;19962;-59
2023/09/18 04:25:10;;;;;;;;;;;;;;;19.18;100.00;100267.84;5048934;28;19919;-59
2023/09/18 04:27:35;;;;;;;;;;;;;;;19.18;100.00;100259.91;5050206;28;19931;-60
2023/09/18 04:30:01;;;;;;;;;;;;;;;19.16;100.00;100251.16;5045851;28;19905;-60
2023/09/18 04:32:27;;;;;;;;;;;;;;;19.17;100.00;100254.66;5026010;28;19905;-60
2023/09/18 04:34:52;;;;;;;;;;;;;;;19.15;100.00;100246.78;5042401;28;19912;-60
2023/09/18 04:37:17;;;;;;;;;;;;;;;19.14;100.00;100244.19;5042247;28;19909;-60
2023/09/18 04:39:42;;;;;;;;;;;;;;;19.14;100.00;100246.81;5045318;28;19905;-60
2023/09/18 04:42:08;;;;;;;;;;;;;;;19.13;100.00;100239.78;5042551;28;20174;-60
2023/09/18 04:44:33;;;;;;;;;;;;;;;19.11;100.00;100211.63;5042697;28;19916;-60
2023/09/18 04:46:58;;;;;;;;;;;;;;;19.12;100.00;100194.03;5043707;28;20528;-60
2023/09/18 04:49:23;;;;;;;;;;;;;;;19.10;100.00;100195.81;5044393;28;19949;-60
2023/09/18 04:51:49;;;;;;;;;;;;;;;19.07;100.00;100190.63;5043384;28;19944;-60
2023/09/18 04:54:17;;;;;;;;;;;;;;;19.06;100.00;100186.22;5026099;28;19943;-59
2023/09/18 04:56:42;;;;;;;;;;;;;;;19.04;100.00;100188.91;5043888;28;20141;-60
2023/09/18 04:59:07;;;;;;;;;;;;;;;19.02;100.00;100190.72;5040931;28;20139;-59
2023/09/18 05:01:33;;;;;;;;;;;;;;;19.02;100.00;100187.22;5042961;28;20097;-59
2023/09/18 05:03:58;;;;;;;;;;;;;;;19.02;100.00;100189.88;5043008;28;19959;-60
2023/09/18 05:06:23;;;;;;;;;;;;;;;19.01;100.00;100180.19;5042594;28;19947;-60
2023/09/18 05:08:48;;;;;;;;;;;;;;;19.01;100.00;100180.19;5047345;28;19963;-60
2023/09/18 05:11:14;;;;;;;;;;;;;;;18.99;100.00;100195.19;5043280;28;19908;-60
2023/09/18 05:13:39;;;;;;;;;;;;;;;18.97;100.00;100189.09;5042392;28;19905;-60
2023/09/18 05:16:04;;;;;;;;;;;;;;;18.93;100.00;100194.44;5043485;28;19928;-60
2023/09/18 05:18:29;;;;;;;;;;;;;;;18.91;100.00;100196.22;5043550;28;19911;-61
2023/09/18 05:20:55;;;;;;;;;;;;;;;18.89;100.00;100195.41;5044591;28;19936;-60
2023/09/18 05:23:20;;;;;;;;;;;;;;;18.87;100.00;100197.22;5021698;28;20055;-60
2023/09/18 05:25:45;;;;;;;;;;;;;;;18.86;100.00;100200.75;5041268;28;19909;-59
2023/09/18 05:28:10;;;;;;;;;;;;;;;18.84;100.00;100205.16;5044452;28;19944;-60
2023/09/18 05:30:38;;;;;;;;;;;;;;;18.84;100.00;100210.44;5041580;28;19905;-60
2023/09/18 05:33:07;;;;;;;;;;;;;;;18.84;100.00;100206.91;5037670;28;19967;-61
2023/09/18 05:35:32;;;;;;;;;;;;;;;18.82;100.00;100200.81;5043699;28;20055;-60
2023/09/18 05:37:58;;;;;;;;;;;;;;;18.82;100.00;100199.03;5045270;28;19975;-61
2023/09/18 05:40:26;;;;;;;;;;;;;;;18.92;100.00;100203.25;5042020;28;19952;-61
2023/09/18 05:42:55;;;;;;;;;;;;;;;18.82;100.00;100196.38;5048803;28;19912;-60
2023/09/18 05:45:20;;;;;;;;;;;;;;;18.80;100.00;100199.97;5045204;28;19992;-60
2023/09/18 05:47:46;;;;;;;;;;;;;;;18.89;100.00;100205.97;5039220;28;19905;-61
2023/09/18 05:50:16;;;;;;;;;;;;;;;18.81;100.00;100209.63;5039663;28;19906;-60
2023/09/18 05:52:41;;;;;;;;;;;;;;;18.83;100.00;100219.25;5043956;28;20159;-60
2023/09/18 05:55:07;;;;;;;;;;;;;;;18.80;100.00;100213.16;5042910;28;19913;-60
2023/09/18 05:57:32;;;;;;;;;;;;;;;18.78;100.00;100221.09;5041791;28;19913;-60
2023/09/18 05:59:57;;;;;;;;;;;;;;;18.76;100.00;100222.91;5038186;28;19959;-60
2023/09/18 06:02:24;;;;;;;;;;;;;;;18.83;100.00;100223.66;5041348;28;19913;-60
2023/09/18 06:04:53;;;;;;;;;;;;;;;18.82;100.00;100224.56;5037075;28;19913;-60
2023/09/18 06:07:19;;;;;;;;;;;;;;;18.75;100.00;100227.31;5035895;28;20098;-58
2023/09/18 06:09:44;;;;;;;;;;;;;;;18.74;100.00;100241.44;5040429;28;20169;-60
2023/09/18 06:12:09;;;;;;;;;;;;;;;18.72;100.00;100245.00;5036885;28;19912;-60
2023/09/18 06:14:34;;;;;;;;;;;;;;;18.72;100.00;100243.22;5037653;28;19913;-60
2023/09/18 06:17:00;;;;;;;;;;;;;;;18.81;100.00;100247.44;5040831;28;19912;-60
2023/09/18 06:19:25;;;;;;;;;;;;;;;18.70;100.00;100247.66;5038972;28;19917;-60
2023/09/18 06:21:50;;;;;;;;;;;;;;;18.68;100.00;100246.81;5037489;28;19924;-61
2023/09/18 06:24:18;;;;;;;;;;;;;;;18.71;100.00;100245.88;5037346;28;19972;-61
2023/09/18 06:26:45;;;;;;;;;;;;;;;18.74;100.00;100245.81;5029204;28;20223;-60
2023/09/18 06:29:11;;;;;;;;;;;;;;;18.68;100.00;100261.78;5017564;28;19924;-60
2023/09/18 06:31:36;;;;;;;;;;;;;;;18.65;100.00;100257.44;5016682;28;19906;-60
2023/09/18 06:34:01;;;;;;;;;;;;;;;18.63;100.00;100250.47;5019585;28;19913;-60
2023/09/18 06:36:29;;;;;;;;;;;;;;;18.59;100.00;100253.13;5023424;28;19905;-60
2023/09/18 06:38:54;;;;;;;;;;;;;;;18.61;100.00;100261.03;5021580;28;19948;-59
2023/09/18 06:41:20;;;;;;;;;;;;;;;18.60;100.00;100262.78;5023196;28;19960;-59
2023/09/18 06:43:45;;;;;;;;;;;;;;;18.62;100.00;100283.00;5023449;28;19909;-60
2023/09/18 06:46:10;;;;;;;;;;;;;;;18.64;100.00;100270.66;5025081;28;19909;-60
2023/09/18 06:48:35;;;;;;;;;;;;;;;18.64;100.00;100274.19;5016375;28;19981;-60
2023/09/18 06:51:01;;;;;;;;;;;;;;;18.63;100.00;100276.84;5020537;28;20072;-60
2023/09/18 06:53:27;;;;;;;;;;;;;;;18.65;100.00;100288.22;5022769;28;19906;-60
2023/09/18 06:55:52;;;;;;;;;;;;;;;18.66;100.00;100297.91;5026401;28;20158;-60
2023/09/18 06:58:17;;;;;;;;;;;;;;;18.66;100.00;100300.53;5022528;28;19905;-60
2023/09/18 07:00:43;;;;;;;;;;;;;;;18.68;100.00;100304.00;5017826;28;19906;-60
2023/09/18 07:03:09;;;;;;;;;;;;;;;18.70;100.00;100297.81;5027255;28;20095;-60
2023/09/18 07:05:34;;;;;;;;;;;;;;;18.70;100.00;100295.16;5019818;28;19997;-60
2023/09/18 07:08:00;;;;;;;;;;;;;;;18.70;100.00;100287.25;5019501;28;19906;-60
2023/09/18 07:10:25;;;;;;;;;;;;;;;18.72;100.00;100289.84;5024083;28;19901;-60
2023/09/18 07:12:50;;;;;;;;;;;;;;;18.86;100.00;100301.06;5023171;28;19969;-60
2023/09/18 07:15:16;;;;;;;;;;;;;;;18.84;100.00;100294.03;5016874;28;20261;-60
2023/09/18 07:17:42;;;;;;;;;;;;;;;18.73;100.00;100295.09;5016593;28;19916;-60
2023/09/18 07:20:13;;;;;;;;;;;;;;;18.73;100.00;100303.03;5020240;28;21148;-60
2023/09/18 07:22:39;;;;;;;;;;;;;;;18.86;100.00;100303.69;5019864;28;19997;-60
2023/09/18 07:25:04;;;;;;;;;;;;;;;18.76;100.00;100310.03;5013056;28;19917;-60
2023/09/18 07:27:30;;;;;;;;;;;;;;;18.79;100.00;100315.25;5045193;28;20139;-60
2023/09/18 07:29:56;;;;;;;;;;;;;;;18.75;100.00;100308.28;5045032;28;19909;-60
2023/09/18 07:32:21;;;;;;;;;;;;;;;18.74;100.00;100306.53;5047125;28;19976;-60
2023/09/18 07:34:47;;;;;;;;;;;;;;;18.76;100.00;100315.28;5042557;28;20581;-60
2023/09/18 07:37:12;;;;;;;;;;;;;;;18.75;100.00;100316.19;5046734;28;19928;-60
2023/09/18 07:39:39;;;;;;;;;;;;;;;18.75;100.00;100327.59;5043290;28;19932;-60
2023/09/18 07:42:04;;;;;;;;;;;;;;;18.75;100.00;100318.81;5032145;28;20044;-60
2023/09/18 07:44:29;;;;;;;;;;;;;;;18.78;100.00;100324.03;5047315;28;19952;-59
2023/09/18 07:46:55;;;;;;;;;;;;;;;18.80;100.00;100319.63;5046134;28;19932;-60
2023/09/18 07:49:20;;;;;;;;;;;;;;;18.79;100.00;100315.25;5043523;28;19975;-59
2023/09/18 07:51:45;;;;;;;;;;;;;;;18.80;100.00;100318.72;5045062;28;20051;-60
2023/09/18 07:54:13;;;;;;;;;;;;;;;18.80;100.00;100317.00;5044847;28;19909;-60
2023/09/18 07:56:38;;;;;;;;;;;;;;;18.86;100.00;100316.91;5035634;28;20063;-60
2023/09/18 07:59:05;;;;;;;;;;;;;;;18.89;100.00;100319.47;5050877;28;19968;-60
2023/09/18 08:01:31;;;;;;;;;;;;;;;18.84;100.00;100310.75;5039827;28;19933;-60
2023/09/18 08:03:59;;;;;;;;;;;;;;;18.87;100.00;100310.72;5039334;28;19902;-60
2023/09/18 08:06:26;;;;;;;;;;;;;;;18.88;100.00;100308.94;5038193;28;20149;-60
2023/09/18 08:08:51;;;;;;;;;;;;;;;18.90;100.00;100315.06;5037864;28;19905;-60
2023/09/18 08:11:16;;;;;;;;;;;;;;;18.91;100.00;100320.28;5042501;28;19951;-60
2023/09/18 08:13:42;;;;;;;;;;;;;;;18.88;100.00;100317.72;5039960;28;20210;-60
2023/09/18 08:16:07;;;;;;;;;;;;;;;18.90;100.00;100320.34;5042795;28;20147;-61
2023/09/18 08:18:32;;;;;;;;;;;;;;;18.90;100.00;100326.50;5043880;28;19905;-59
2023/09/18 08:20:58;;;;;;;;;;;;;;;18.93;100.00;100326.44;5041769;28;19912;-60
2023/09/18 08:23:23;;;;;;;;;;;;;;;18.99;100.00;100329.84;5043167;28;19913;-60
2023/09/18 08:25:51;;;;;;;;;;;;;;;19.00;100.00;100334.22;5040901;28;20165;-60
2023/09/18 08:28:16;;;;;;;;;;;;;;;19.06;100.00;100328.81;5039669;28;20201;-59
2023/09/18 08:30:44;;;;;;;;;;;;;;;19.10;100.00;100338.44;5041389;28;19905;-59
2023/09/18 08:33:09;;;;;;;;;;;;;;;19.14;100.00;100340.09;5042790;28;19897;-60
2023/09/18 08:35:35;;;;;;;;;;;;;;;19.22;100.00;100354.03;5042001;28;19909;-59
2023/09/18 08:38:00;;;;;;;;;;;;;;;19.26;100.00;100344.28;5045388;28;19897;-59
2023/09/18 08:40:25;;;;;;;;;;;;;;;19.25;100.00;100351.34;5045141;28;19905;-59
2023/09/18 08:42:52;;;;;;;;;;;;;;;19.34;100.00;100352.06;5044165;28;20055;-60
2023/09/18 08:45:20;;;;;;;;;;;;;;;19.34;100.00;100360.84;5039673;28;19920;-59
2023/09/18 08:47:46;;;;;;;;;;;;;;;19.31;100.00;100358.28;5043867;28;20135;-59
2023/09/18 08:50:12;;;;;;;;;;;;;;;19.32;100.00;100367.06;5045865;28;19917;-59
2023/09/18 08:52:37;;;;;;;;;;;;;;;19.38;100.00;100359.00;5039859;28;20181;-59
2023/09/18 08:55:04;;;;;;;;;;;;;;;19.38;100.00;100354.59;5043515;28;20095;-59
2023/09/18 08:57:30;;;;;;;;;;;;;;;19.40;100.00;100360.72;5044888;28;19905;-59
2023/09/18 08:59:55;;;;;;;;;;;;;;;19.42;100.00;100358.03;5043338;28;19905;-59
2023/09/18 09:02:21;;;;;;;;;;;;;;;19.49;100.00;100357.00;5045206;28;19977;-59
2023/09/18 09:04:46;;;;;;;;;;;;;;;19.53;100.00;100361.31;5042055;28;19906;-60
2023/09/18 09:07:11;;;;;;;;;;;;;;;19.60;100.00;100359.44;5044379;28;19909;-59
2023/09/18 09:09:37;;;;;;;;;;;;;;;19.75;100.00;100347.66;5042482;28;19943;-59
2023/09/18 09:12:02;;;;;;;;;;;;;;;19.87;100.00;100358.00;5044065;28;19975;-59
2023/09/18 09:14:28;;;;;;;;;;;;;;;20.07;100.00;100354.00;5045107;28;20194;-59
2023/09/18 09:16:53;;;;;;;;;;;;;;;20.22;100.00;100358.03;5044311;28;19952;-59
2023/09/18 09:19:27;;;;;;;;;;;;;;;20.42;99.93;100371.69;5044593;28;19954;-59
2023/09/18 09:21:53;;;;;;;;;;;;;;;20.43;99.79;100368.09;5040136;28;19905;-59
2023/09/18 09:24:35;;;;;;;;;;;;;;;20.44;97.77;100374.28;5045350;28;19912;-59
2023/09/18 09:27:00;;;;;;;;;;;;;;;20.34;97.04;100378.94;5057795;28;19930;-60
2023/09/18 09:29:25;;;;;;;;;;;;;;;20.26;97.65;100379.13;5045105;28;19902;-60
2023/09/18 09:31:50;;;;;;;;;;;;;;;20.19;98.78;100384.56;5044584;28;19989;-59
2023/09/18 09:34:24;;;;;;;;;;;;;;;20.22;99.36;100381.84;5044442;28;19901;-59
2023/09/18 09:36:53;;;;;;;;;;;;;;;20.29;99.25;100391.38;5045027;28;19947;-59
2023/09/18 09:39:18;;;;;;;;;;;;;;;20.39;99.77;100376.16;5045010;28;20054;-59
2023/09/18 09:41:47;;;;;;;;;;;;;;;20.50;98.95;100387.34;5042629;28;21327;-59
2023/09/18 09:44:13;;;;;;;;;;;;;;;20.53;98.49;100387.28;5040148;28;19905;-60
2023/09/18 09:46:45;;;;;;;;;;;;;;;20.56;97.10;100381.91;5043591;28;19967;-60
2023/09/18 09:49:10;;;;;;;;;;;;;;;20.57;97.08;100378.34;5043555;28;19905;-60
2023/09/18 09:51:35;;;;;;;;;;;;;;;20.58;97.15;100372.16;5042522;28;19948;-59
2023/09/18 09:54:01;;;;;;;;;;;;;;;20.62;96.08;100376.47;5042093;28;20269;-60
2023/09/18 09:56:46;;;;;;;;;;;;;;;20.60;96.71;100382.72;5039796;28;19905;-60
2023/09/18 09:59:12;;;;;;;;;;;;;;;20.59;96.77;100376.53;5044613;28;20147;-60
2023/09/18 10:01:38;;;;;;;;;;;;;;;20.59;96.93;100381.81;5042114;28;19974;-60
2023/09/18 10:04:13;;;;;;;;;;;;;;;20.61;97.55;100368.53;5043316;28;19905;-60
2023/09/18 10:06:41;;;;;;;;;;;;;;;20.59;97.48;100392.41;5041548;28;19909;-60
2023/09/18 10:09:07;;;;;;;;;;;;;;;20.59;97.68;100405.63;5042922;28;19905;-60
2023/09/18 10:11:36;;;;;;;;;;;;;;;20.74;95.72;100393.84;5044591;28;19921;-60
2023/09/18 10:14:22;;;;;;;;;;;;;;;20.62;96.28;100405.59;5043804;28;19912;-60
2023/09/18 10:16:52;;;;;;;;;;;;;;;20.61;97.37;100410.91;5032954;28;19905;-60
2023/09/18 10:19:28;;;;;;;;;;;;;;;20.65;97.12;100405.50;5043035;28;19968;-60
2023/09/18 10:22:00;;;;;;;;;;;;;;;20.73;96.68;100405.34;5041461;28;19913;-60
2023/09/18 10:24:30;;;;;;;;;;;;;;;20.87;95.69;100397.06;5042465;28;19917;-61
2023/09/18 10:26:56;;;;;;;;;;;;;;;20.94;97.03;100393.31;5042188;28;20139;-60
2023/09/18 10:29:22;;;;;;;;;;;;;;;21.16;95.85;100405.97;5040680;28;19912;-60
2023/09/18 10:31:48;;;;;;;;;;;;;;;21.40;93.93;100398.25;5041135;28;19948;-60
2023/09/18 10:34:13;;;;;;;;;;;;;;;21.71;89.87;100406.25;5039371;28;19905;-60
2023/09/18 10:36:41;;;;;;;;;;;;;;;21.77;91.46;100407.81;5043846;28;19940;-59
2023/09/18 10:39:10;;;;;;;;;;;;;;;21.88;90.57;100400.41;5043760;28;19901;-59
2023/09/18 10:41:35;;;;;;;;;;;;;;;21.81;90.02;100401.50;5041062;28;19959;-60
2023/09/18 10:44:01;;;;;;;;;;;;;;;21.64;88.65;100396.72;5019167;28;19906;-60
2023/09/18 10:46:26;;;;;;;;;;;;;;;21.42;89.96;100402.63;5036747;28;19944;-59
2023/09/18 10:48:52;;;;;;;;;;;;;;;21.30;90.32;100410.91;5041948;28;19912;-60
2023/09/18 10:51:21;;;;;;;;;;;;;;;21.23;91.54;100406.69;5043940;28;19901;-60
2023/09/18 10:53:47;;;;;;;;;;;;;;;21.35;90.14;100399.25;5041315;28;19971;-59
2023/09/18 10:56:15;;;;;;;;;;;;;;;21.24;91.10;100400.47;5041834;28;19920;-60
2023/09/18 10:58:41;;;;;;;;;;;;;;;21.27;91.12;100395.94;5040868;28;19913;-59
2023/09/18 11:01:06;;;;;;;;;;;;;;;21.28;90.56;100389.75;5039336;28;19933;-60
2023/09/18 11:03:33;;;;;;;;;;;;;;;21.30;91.86;100387.03;5042963;28;19909;-59
2023/09/18 11:06:02;;;;;;;;;;;;;;;21.43;90.58;100387.56;5045953;28;20015;-60
2023/09/18 11:08:28;;;;;;;;;;;;;;;21.44;92.08;100389.31;5044310;28;19936;-60
2023/09/18 11:11:09;;;;;;;;;;;;;;;21.63;89.73;100393.19;5046561;28;19913;-60
2023/09/18 11:13:35;;;;;;;;;;;;;;;21.77;88.44;100391.91;5046638;28;19927;-59
2023/09/18 11:16:03;;;;;;;;;;;;;;;21.84;87.61;100393.44;5047719;28;19901;-60
2023/09/18 11:18:32;;;;;;;;;;;;;;;21.92;88.12;100390.59;5044750;28;21035;-60
2023/09/18 11:21:10;;;;;;;;;;;;;;;21.95;87.68;100391.34;5047216;28;19957;-59
2023/09/18 11:23:37;;;;;;;;;;;;;;;22.14;86.86;100398.72;5042604;28;19905;-60
2023/09/18 11:26:10;;;;;;;;;;;;;;;22.14;85.61;100394.28;5043693;28;19937;-60
2023/09/18 11:28:37;;;;;;;;;;;;;;;22.09;85.63;100400.66;5043837;28;19959;-60
2023/09/18 11:31:03;;;;;;;;;;;;;;;22.03;85.50;100394.63;5043935;28;19917;-61
2023/09/18 11:33:32;;;;;;;;;;;;;;;22.20;85.31;100396.75;5045259;28;19943;-61
2023/09/18 11:36:03;;;;;;;;;;;;;;;22.31;85.78;100398.19;5044314;28;19908;-61
2023/09/18 11:38:28;;;;;;;;;;;;;;;22.44;83.93;100399.56;5044492;28;19908;-60
2023/09/18 11:43:31;;;;;;;;;;;;;;;22.45;83.27;100406.63;5007904;28;19983;-61
2023/09/18 11:46:00;;;;;;;;;;;;;;;22.64;82.12;100393.59;5013371;28;19918;-61
2023/09/18 11:48:29;;;;;;;;;;;;;;;22.82;80.99;100401.84;4993618;28;19917;-61
2023/09/18 11:50:55;;;;;;;;;;;;;;;22.81;80.68;100397.44;5001306;28;20303;-61
2023/09/18 11:53:21;;;;;;;;;;;;;;;22.71;78.87;100392.47;5006019;28;19917;-61
2023/09/18 11:55:47;;;;;;;;;;;;;;;22.74;75.34;100389.69;5008064;28;19921;-61
2023/09/18 11:58:13;;;;;;;;;;;;;;;22.65;78.98;100391.78;5009800;28;19918;-61
2023/09/18 12:00:45;;;;;;;;;;;;;;;22.91;79.53;100390.88;5010567;28;19983;-61
2023/09/18 12:03:27;;;;;;;;;;;;;;;23.23;77.50;100373.84;5013680;28;20059;-61
2023/09/18 12:05:57;;;;;;;;;;;;;;;23.40;77.45;100369.69;5004966;28;20159;-61
2023/09/18 12:08:23;;;;;;;;;;;;;;;23.56;78.26;100372.63;5005315;28;19920;-61
2023/09/18 12:10:51;;;;;;;;;;;;;;;23.63;78.50;100365.28;5014381;28;20148;-62
2023/09/18 12:13:16;;;;;;;;;;;;;;;23.85;73.66;100375.97;5013557;28;19976;-62
2023/09/18 12:15:41;;;;;;;;;;;;;;;23.93;73.87;100376.56;5015487;28;19973;-62
2023/09/18 12:18:12;;;;;;;;;;;;;;;23.79;73.72;100375.25;5006184;28;19910;-62
2023/09/18 12:20:37;;;;;;;;;;;;;;;23.74;74.02;100369.25;5014025;28;19936;-62
2023/09/18 12:23:02;;;;;;;;;;;;;;;23.63;75.82;100354.66;5011848;28;19914;-62
2023/09/18 12:25:28;;;;;;;;;;;;;;;23.76;73.94;100362.09;5005676;28;20199;-62
2023/09/18 12:27:53;;;;;;;;;;;;;;;23.83;75.93;100356.53;5005733;28;20101;-62